Etusivu
METAR-TAF:

METAR-TAF

Lentoasemat :

Calgary-Springbank, Alberta, Kanada

Leveyspiiri: 51-06N, Pituuspiiri: 114-22W, korkeus merenpinnasta: 1200 m

Tämänhetkinen sää

Tämä raportti tehtiin 20 minuuttia sitten, kello 12.00 UTC
Tuuli 4 kn lännestä/luoteesta
Lämpötila -2°C
Kosteus 80%
Ilmanpaine 1013 hPa
Näkyvyys: 14.5 km
selkeää

METAR: CYBW 131200Z AUTO 29004KT 9SM CLR M02/M05 A2992 RMK SLP180

Aika: 05:20 (12:20 UTC)

Sääennuste

Tämä raportti tehtiin 12 tuntia ja 42 minuuttia sitten, kello 23.38 UTC
Ennuste voimassa 13. päivästä klo 00 UTC - 13. päivään klo 05 UTC
Tuuli 6 kn luoteesta
Näkyvyys: 10 km
Hajanaisia pilviä 4000 ft:n korkeudessa
Hajonneita pilviä 12000 ft:n korkeudessa

TAF: CYBW 122338Z 1300/1305 32006KT P6SM SCT040 BKN120 RMK FCST BASED ON AUTO OBS. NXT FCST WILL BE ISSUED AT 131245Z

Säähavainnot ja -ennusteet yli 4000 lentoasemalta (METAR- ja TAF-raportit).

Käytössä olevat sääasemat on merkitty karttaan keltaisilla ja punaisilla pisteillä.

Aseta hiiri pisteen päälle nähdäksesi sääaseman nimen.

Klikkaa sitten nähdäksesi säähavainnot ja -ennusteet.

Kartan vaihtaminen: klikkaa mustalla rastilla varustettuja vihreitä pisteitä, niin voit zoomata sisään; viivalla varustettua vihreää pistettä, niin voit zoomata ulos tai vihreitä nuolia, niin pääset viereisille kartoille.


METAR-TAF: